Time;durP1;ratioP1;P1;durP2;ratioP2;P2;SDS_P1;SDS_P2;PMS_P1;PMS_P2;Temp;Humidity;BMP_temperature;BMP_pressure;BME280_temperature;BME280_humidity;BME280_pressure;Samples;Min_cycle;Max_cycle;Signal;HPM_P1;HPM_P2
2023/04/21 17:35:30;;;;;;;10.40;6.38;;;;;;;;;;7393482;19;20401;-71
2023/04/21 17:37:55;;;;;;;7.78;5.13;;;;;;;;;;7418282;19;20018;-71
2023/04/21 17:40:21;;;;;;;8.30;4.20;;;;;;;;;;7399662;19;20011;-72
2023/04/21 17:42:46;;;;;;;8.00;2.95;;;;;;;;;;7417743;19;20039;-72
2023/04/21 17:45:12;;;;;;;6.22;2.65;;;;;;;;;;7422969;19;20464;-72
2023/04/21 17:47:37;;;;;;;4.97;2.45;;;;;;;;;;7420617;19;20113;-73
2023/04/21 17:50:03;;;;;;;34.20;16.42;;;;;;;;;;7421334;19;20027;-71
2023/04/21 17:52:29;;;;;;;15.50;8.10;;;;;;;;;;7421849;19;20006;-71
2023/04/21 17:54:54;;;;;;;16.10;6.50;;;;;;;;;;7418203;19;20561;-71
2023/04/21 17:57:19;;;;;;;9.25;4.68;;;;;;;;;;7416907;19;20006;-71
2023/04/21 17:59:45;;;;;;;9.10;3.22;;;;;;;;;;7422690;19;19998;-71
2023/04/21 18:02:10;;;;;;;8.98;4.35;;;;;;;;;;7429390;19;20104;-72
2023/04/21 18:04:35;;;;;;;6.35;2.92;;;;;;;;;;7433484;19;19999;-71
2023/04/21 18:07:01;;;;;;;6.35;3.28;;;;;;;;;;7421482;19;20040;-71
2023/04/21 18:09:27;;;;;;;4.72;2.40;;;;;;;;;;7421175;19;20006;-72
2023/04/21 18:11:52;;;;;;;6.32;2.63;;;;;;;;;;7415869;19;20609;-72
2023/04/21 18:14:18;;;;;;;7.38;3.03;;;;;;;;;;7419004;19;19998;-71
2023/04/21 18:16:43;;;;;;;5.82;3.05;;;;;;;;;;7418307;19;20470;-71
2023/04/21 18:19:10;;;;;;;6.57;2.35;;;;;;;;;;7417257;19;20053;-71
2023/04/21 18:21:35;;;;;;;4.45;2.53;;;;;;;;;;7414896;19;20017;-71
2023/04/21 18:24:00;;;;;;;3.58;2.20;;;;;;;;;;7397113;19;20456;-71
2023/04/21 18:26:26;;;;;;;5.53;2.38;;;;;;;;;;7397229;19;20778;-72
2023/04/21 18:28:57;;;;;;;4.68;2.33;;;;;;;;;;7419985;19;20019;-71
2023/04/21 18:31:24;;;;;;;8.20;4.88;;;;;;;;;;7419670;19;20386;-72
2023/04/21 18:33:50;;;;;;;9.25;5.82;;;;;;;;;;7414363;19;20010;-70
2023/04/21 18:36:16;;;;;;;8.35;3.35;;;;;;;;;;7413605;19;20002;-73
2023/04/21 18:38:41;;;;;;;8.02;2.95;;;;;;;;;;7417423;19;20010;-72
2023/04/21 18:41:07;;;;;;;8.43;2.63;;;;;;;;;;7422221;19;20015;-74
2023/04/21 18:43:32;;;;;;;7.30;2.50;;;;;;;;;;7418330;19;20016;-73
2023/04/21 18:45:57;;;;;;;7.13;2.55;;;;;;;;;;7373329;19;20013;-73
2023/04/21 18:48:23;;;;;;;5.68;3.00;;;;;;;;;;7369344;19;20156;-72
2023/04/21 18:50:48;;;;;;;4.43;2.38;;;;;;;;;;7369193;19;20019;-73
2023/04/21 18:53:14;;;;;;;5.32;2.60;;;;;;;;;;7306049;19;20039;-75
2023/04/21 18:55:39;;;;;;;6.45;2.90;;;;;;;;;;7367365;19;20071;-73
2023/04/21 18:58:05;;;;;;;7.35;3.17;;;;;;;;;;7343999;19;20015;-74
2023/04/21 19:00:30;;;;;;;7.78;3.20;;;;;;;;;;7388978;19;20051;-73
2023/04/21 19:02:59;;;;;;;7.20;3.58;;;;;;;;;;7369001;19;20985;-74
2023/04/21 19:05:25;;;;;;;7.75;3.00;;;;;;;;;;7371552;19;20479;-74
2023/04/21 19:07:50;;;;;;;7.45;3.20;;;;;;;;;;7368587;19;20010;-73
2023/04/21 19:10:16;;;;;;;6.35;3.63;;;;;;;;;;7373027;19;20035;-72
2023/04/21 19:12:41;;;;;;;6.53;3.30;;;;;;;;;;7393798;19;20003;-73
2023/04/21 19:15:07;;;;;;;5.50;3.20;;;;;;;;;;7367804;19;20115;-73
2023/04/21 19:17:32;;;;;;;5.93;2.92;;;;;;;;;;7370079;19;20406;-76
2023/04/21 19:19:58;;;;;;;6.50;3.15;;;;;;;;;;7373728;19;20488;-73
2023/04/21 19:22:23;;;;;;;5.00;2.80;;;;;;;;;;7375121;19;20492;-73
2023/04/21 19:24:49;;;;;;;6.07;2.75;;;;;;;;;;7401343;19;20029;-72
2023/04/21 19:27:15;;;;;;;6.03;3.05;;;;;;;;;;7374914;19;20485;-73
2023/04/21 19:29:40;;;;;;;5.80;3.25;;;;;;;;;;7373122;19;20056;-72
2023/04/21 19:32:06;;;;;;;12.55;3.28;;;;;;;;;;7376977;19;20035;-72
2023/04/21 19:34:31;;;;;;;5.18;2.95;;;;;;;;;;7369782;19;20007;-74
2023/04/21 19:36:57;;;;;;;5.25;3.10;;;;;;;;;;7375426;19;20010;-74
2023/04/21 19:39:22;;;;;;;5.65;3.38;;;;;;;;;;7396122;19;20010;-73
2023/04/21 19:41:48;;;;;;;7.63;3.60;;;;;;;;;;7375933;19;20011;-73
2023/04/21 19:44:13;;;;;;;5.68;2.97;;;;;;;;;;7374294;19;20476;-74
2023/04/21 19:46:41;;;;;;;5.28;2.75;;;;;;;;;;7381603;19;20011;-72
2023/04/21 19:49:07;;;;;;;6.72;3.00;;;;;;;;;;7386224;19;20060;-73
2023/04/21 19:51:32;;;;;;;6.57;2.90;;;;;;;;;;7403616;19;20074;-74
2023/04/21 19:53:58;;;;;;;5.43;3.03;;;;;;;;;;7371860;19;20014;-73
2023/04/21 19:56:23;;;;;;;6.80;3.53;;;;;;;;;;7365627;19;20014;-71
2023/04/21 19:58:48;;;;;;;8.65;3.42;;;;;;;;;;7371540;19;20010;-73
2023/04/21 20:01:14;;;;;;;6.88;3.20;;;;;;;;;;7370329;19;20108;-72
2023/04/21 20:03:39;;;;;;;5.95;3.33;;;;;;;;;;7368072;19;20014;-73
2023/04/21 20:06:05;;;;;;;7.43;3.30;;;;;;;;;;7369931;19;20507;-75
2023/04/21 20:08:30;;;;;;;8.40;3.42;;;;;;;;;;7371259;19;20101;-72
2023/04/21 20:10:56;;;;;;;7.05;3.65;;;;;;;;;;7373844;19;20078;-72
2023/04/21 20:13:21;;;;;;;6.70;3.35;;;;;;;;;;7373888;19;20021;-71
2023/04/21 20:18:24;;;;;;;6.13;3.08;;;;;;;;;;7385437;19;20011;-71
2023/04/21 20:20:49;;;;;;;7.15;3.33;;;;;;;;;;7382496;19;20675;-72
2023/04/21 20:23:15;;;;;;;7.85;3.70;;;;;;;;;;7373015;19;20027;-73
2023/04/21 20:25:42;;;;;;;7.70;3.80;;;;;;;;;;7372101;19;20018;-73
2023/04/21 20:28:07;;;;;;;8.48;3.72;;;;;;;;;;7371328;19;20013;-74
2023/04/21 20:30:32;;;;;;;7.50;3.83;;;;;;;;;;7393765;19;19998;-73
2023/04/21 20:32:58;;;;;;;7.07;3.92;;;;;;;;;;7368326;19;20006;-73
2023/04/21 20:35:23;;;;;;;8.70;4.32;;;;;;;;;;7366201;19;20026;-73
2023/04/21 20:37:52;;;;;;;7.03;3.75;;;;;;;;;;7365884;19;20006;-72
2023/04/21 20:40:17;;;;;;;6.00;3.88;;;;;;;;;;7371557;19;20489;-72
2023/04/21 20:42:43;;;;;;;7.22;4.35;;;;;;;;;;7391433;19;20500;-73
2023/04/21 20:45:10;;;;;;;7.40;4.18;;;;;;;;;;7371243;19;20378;-73
2023/04/21 20:47:36;;;;;;;8.98;3.55;;;;;;;;;;7366894;19;19998;-74
2023/04/21 20:50:02;;;;;;;7.32;3.70;;;;;;;;;;7366403;19;20010;-74
2023/04/21 20:52:27;;;;;;;7.70;3.35;;;;;;;;;;7368060;19;20016;-73
2023/04/21 20:54:52;;;;;;;6.88;3.47;;;;;;;;;;7367657;19;20082;-73
2023/04/21 20:57:18;;;;;;;5.07;3.55;;;;;;;;;;7392105;19;20006;-73
2023/04/21 20:59:43;;;;;;;5.72;3.30;;;;;;;;;;7365845;19;20018;-74
2023/04/21 21:02:08;;;;;;;6.50;3.50;;;;;;;;;;7368291;19;20053;-73
2023/04/21 21:04:34;;;;;;;5.25;3.25;;;;;;;;;;7367756;19;20002;-73
2023/04/21 21:07:00;;;;;;;9.27;3.35;;;;;;;;;;7365903;19;20033;-73
2023/04/21 21:09:26;;;;;;;7.85;3.42;;;;;;;;;;7388881;19;20371;-73
2023/04/21 21:11:51;;;;;;;6.43;3.13;;;;;;;;;;7367451;19;20010;-71
2023/04/21 21:14:17;;;;;;;4.75;3.35;;;;;;;;;;7368605;19;20493;-73
2023/04/21 21:16:42;;;;;;;7.18;3.72;;;;;;;;;;7367275;19;20536;-75
2023/04/21 21:19:08;;;;;;;5.47;3.42;;;;;;;;;;7369862;19;20374;-73
2023/04/21 21:21:33;;;;;;;9.88;3.70;;;;;;;;;;7390909;19;20010;-73
2023/04/21 21:23:59;;;;;;;6.60;3.70;;;;;;;;;;7364782;19;20010;-73
2023/04/21 21:26:24;;;;;;;7.70;4.22;;;;;;;;;;7365222;19;20084;-72
2023/04/21 21:28:50;;;;;;;7.03;3.97;;;;;;;;;;7361118;19;20355;-73
2023/04/21 21:31:15;;;;;;;7.93;4.30;;;;;;;;;;7366011;19;20006;-73
2023/04/21 21:33:40;;;;;;;9.70;4.07;;;;;;;;;;7386104;19;20011;-73
2023/04/21 21:36:06;;;;;;;8.45;4.05;;;;;;;;;;7368075;19;20040;-74
2023/04/21 21:38:31;;;;;;;6.40;3.75;;;;;;;;;;7365852;19;20031;-73
2023/04/21 21:40:57;;;;;;;9.43;4.00;;;;;;;;;;7364832;19;20007;-73
2023/04/21 21:43:22;;;;;;;9.00;4.47;;;;;;;;;;7364999;19;20070;-74
2023/04/21 21:45:47;;;;;;;7.65;4.20;;;;;;;;;;7390019;19;20005;-73
2023/04/21 21:48:15;;;;;;;9.43;4.45;;;;;;;;;;7364614;19;20014;-73
2023/04/21 21:50:40;;;;;;;10.25;4.57;;;;;;;;;;7366802;19;20021;-74
2023/04/21 21:53:06;;;;;;;7.22;4.00;;;;;;;;;;7368067;19;20018;-74
2023/04/21 21:55:31;;;;;;;8.73;4.88;;;;;;;;;;7367222;19;20010;-73
2023/04/21 21:58:00;;;;;;;9.80;4.60;;;;;;;;;;7367383;19;20013;-73
2023/04/21 22:00:26;;;;;;;8.90;4.28;;;;;;;;;;7390426;19;20023;-73
2023/04/21 22:02:51;;;;;;;9.15;4.55;;;;;;;;;;7367324;19;20006;-73
2023/04/21 22:05:16;;;;;;;9.70;4.28;;;;;;;;;;7367829;19;20006;-73
2023/04/21 22:07:41;;;;;;;7.80;4.63;;;;;;;;;;7366270;19;20011;-73
2023/04/21 22:10:10;;;;;;;8.10;4.53;;;;;;;;;;7369624;19;20028;-73
2023/04/21 22:12:36;;;;;;;10.48;4.20;;;;;;;;;;7393064;19;20010;-73
2023/04/21 22:15:01;;;;;;;9.45;3.92;;;;;;;;;;7367662;19;20475;-72
2023/04/21 22:17:28;;;;;;;8.50;4.43;;;;;;;;;;7366529;19;20040;-72
2023/04/21 22:19:53;;;;;;;7.32;4.03;;;;;;;;;;7367914;19;20011;-73
2023/04/21 22:22:19;;;;;;;7.10;3.90;;;;;;;;;;7375438;19;20016;-73
2023/04/21 22:24:45;;;;;;;11.00;4.45;;;;;;;;;;7400102;19;20073;-73
2023/04/21 22:27:10;;;;;;;7.47;4.40;;;;;;;;;;7375198;19;20002;-73
2023/04/21 22:29:36;;;;;;;9.73;4.47;;;;;;;;;;7374550;19;20093;-73
2023/04/21 22:32:02;;;;;;;8.35;4.55;;;;;;;;;;7373668;19;20449;-73
2023/04/21 22:34:27;;;;;;;8.00;4.30;;;;;;;;;;7374280;19;20011;-73
2023/04/21 22:36:53;;;;;;;7.80;4.45;;;;;;;;;;7375270;19;20476;-73
2023/04/21 22:39:19;;;;;;;8.55;4.82;;;;;;;;;;7397954;19;20013;-73
2023/04/21 22:41:44;;;;;;;8.52;4.75;;;;;;;;;;7373997;19;20036;-73
2023/04/21 22:44:11;;;;;;;11.15;5.40;;;;;;;;;;7373377;19;20022;-72
2023/04/21 22:46:36;;;;;;;12.07;5.55;;;;;;;;;;7374169;19;20010;-72
2023/04/21 22:49:02;;;;;;;9.48;4.63;;;;;;;;;;7376069;19;20007;-72
2023/04/21 22:51:28;;;;;;;8.43;4.68;;;;;;;;;;7396440;19;20115;-72
2023/04/21 22:53:55;;;;;;;9.07;5.05;;;;;;;;;;7371615;19;20476;-73
2023/04/21 22:56:20;;;;;;;7.32;4.65;;;;;;;;;;7371464;19;20436;-73
2023/04/21 22:58:45;;;;;;;9.70;5.05;;;;;;;;;;7373563;19;20083;-73
2023/04/21 23:01:11;;;;;;;8.80;5.10;;;;;;;;;;7373813;19;20018;-74
2023/04/21 23:03:36;;;;;;;9.13;5.28;;;;;;;;;;7398333;19;20019;-73
2023/04/21 23:06:02;;;;;;;9.45;5.25;;;;;;;;;;7374931;19;20012;-74
2023/04/21 23:08:27;;;;;;;12.70;5.50;;;;;;;;;;7375336;19;20017;-74
2023/04/21 23:10:52;;;;;;;8.93;4.97;;;;;;;;;;7374187;19;20002;-73
2023/04/21 23:13:17;;;;;;;8.43;4.85;;;;;;;;;;7369947;19;20049;-74
2023/04/21 23:15:43;;;;;;;10.68;5.40;;;;;;;;;;7394017;19;20438;-73
2023/04/21 23:18:08;;;;;;;11.50;5.35;;;;;;;;;;7370256;19;20249;-73
2023/04/21 23:20:33;;;;;;;9.05;5.13;;;;;;;;;;7372639;19;20039;-73
2023/04/21 23:22:59;;;;;;;9.50;5.43;;;;;;;;;;7372606;19;20365;-73
2023/04/21 23:25:24;;;;;;;9.20;5.18;;;;;;;;;;7373166;19;20034;-73
2023/04/21 23:27:49;;;;;;;13.88;5.30;;;;;;;;;;7394601;19;20011;-74
2023/04/21 23:30:15;;;;;;;8.57;5.50;;;;;;;;;;7383606;19;20006;-73
2023/04/21 23:32:40;;;;;;;8.02;5.18;;;;;;;;;;7376311;19;20015;-73
2023/04/21 23:35:06;;;;;;;13.05;5.50;;;;;;;;;;7372246;19;20350;-73
2023/04/21 23:37:32;;;;;;;8.32;5.22;;;;;;;;;;7370718;19;20493;-73
2023/04/21 23:39:57;;;;;;;9.10;4.82;;;;;;;;;;7376431;19;20457;-73
2023/04/21 23:42:22;;;;;;;11.60;5.63;;;;;;;;;;7404911;19;20003;-73
2023/04/21 23:44:48;;;;;;;11.13;5.70;;;;;;;;;;7388319;19;20010;-73
2023/04/21 23:47:13;;;;;;;10.30;5.82;;;;;;;;;;7385298;19;20010;-72
2023/04/21 23:49:38;;;;;;;9.00;5.45;;;;;;;;;;7386425;19;20011;-73
2023/04/21 23:52:04;;;;;;;9.10;5.18;;;;;;;;;;7380264;19;20009;-73
2023/04/21 23:54:29;;;;;;;10.80;5.25;;;;;;;;;;7398288;19;20391;-73
2023/04/21 23:56:56;;;;;;;12.18;5.47;;;;;;;;;;7374627;19;20002;-73
2023/04/21 23:59:21;;;;;;;9.43;5.15;;;;;;;;;;7375181;19;20014;-73
